Time;durP1;ratioP1;P1;durP2;ratioP2;P2;SDS_P1;SDS_P2;PMS_P1;PMS_P2;Temp;Humidity;BMP_temperature;BMP_pressure;BME280_temperature;BME280_humidity;BME280_pressure;Samples;Min_cycle;Max_cycle;Signal;HPM_P1;HPM_P2
2022/07/28 00:00:27;;;;;;;9.02;2.80;;;;;;;;;;5052348;28;20083;-72
2022/07/28 00:02:53;;;;;;;11.43;2.10;;;;;;;;;;5051958;28;20444;-70
2022/07/28 00:05:19;;;;;;;9.48;2.78;;;;;;;;;;5051700;28;20029;-72
2022/07/28 00:07:45;;;;;;;14.48;2.90;;;;;;;;;;5051837;28;20029;-70
2022/07/28 00:10:10;;;;;;;7.03;2.03;;;;;;;;;;5051648;28;20036;-70
2022/07/28 00:12:37;;;;;;;6.90;1.70;;;;;;;;;;5051633;28;20035;-72
2022/07/28 00:15:03;;;;;;;6.88;1.98;;;;;;;;;;5051694;28;20071;-70
2022/07/28 00:17:29;;;;;;;11.88;2.22;;;;;;;;;;5051520;28;20036;-71
2022/07/28 00:19:55;;;;;;;17.33;3.10;;;;;;;;;;5051531;28;20115;-70
2022/07/28 00:22:21;;;;;;;7.60;2.33;;;;;;;;;;5052006;28;20028;-70
2022/07/28 00:24:47;;;;;;;11.10;2.72;;;;;;;;;;5051508;28;20025;-70
2022/07/28 00:27:15;;;;;;;9.32;2.40;;;;;;;;;;5051320;28;20118;-71
2022/07/28 00:29:41;;;;;;;10.52;2.20;;;;;;;;;;5051617;28;20040;-70
2022/07/28 00:32:07;;;;;;;9.02;2.45;;;;;;;;;;5051477;28;20482;-71
2022/07/28 00:34:33;;;;;;;8.38;2.20;;;;;;;;;;5051317;28;20466;-71
2022/07/28 00:36:59;;;;;;;8.35;1.90;;;;;;;;;;5051447;28;20033;-71
2022/07/28 00:39:25;;;;;;;11.07;2.55;;;;;;;;;;5051447;28;20037;-71
2022/07/28 00:41:51;;;;;;;8.70;2.88;;;;;;;;;;5051257;28;20037;-71
2022/07/28 00:44:18;;;;;;;10.27;2.42;;;;;;;;;;5050107;28;20036;-69
2022/07/28 00:46:44;;;;;;;8.20;2.67;;;;;;;;;;5051049;28;20084;-71
2022/07/28 00:49:10;;;;;;;13.10;2.67;;;;;;;;;;5053100;28;20583;-69
2022/07/28 00:51:36;;;;;;;16.15;2.72;;;;;;;;;;5055325;28;20484;-70
2022/07/28 00:54:03;;;;;;;11.40;2.45;;;;;;;;;;5055212;28;20025;-69
2022/07/28 00:56:29;;;;;;;10.23;2.28;;;;;;;;;;5055405;28;20485;-71
2022/07/28 00:58:55;;;;;;;8.40;2.70;;;;;;;;;;5055224;28;20033;-71
2022/07/28 01:01:21;;;;;;;10.98;3.05;;;;;;;;;;5055211;28;20604;-72
2022/07/28 01:03:49;;;;;;;13.75;2.90;;;;;;;;;;5055096;28;20115;-70
2022/07/28 01:06:19;;;;;;;12.95;2.65;;;;;;;;;;5054995;28;20025;-71
2022/07/28 01:08:48;;;;;;;12.77;2.90;;;;;;;;;;5055553;28;20096;-71
2022/07/28 01:11:26;;;;;;;12.93;2.60;;;;;;;;;;5055203;28;20032;-71
2022/07/28 01:14:00;;;;;;;11.10;2.00;;;;;;;;;;5055880;28;20021;-69
2022/07/28 01:16:26;;;;;;;8.18;1.90;;;;;;;;;;5056212;28;20021;-70
2022/07/28 01:19:15;;;;;;;6.88;2.20;;;;;;;;;;5054947;28;20091;-71
2022/07/28 01:21:42;;;;;;;8.15;2.03;;;;;;;;;;5054855;28;20064;-71
2022/07/28 01:24:21;;;;;;;7.72;2.13;;;;;;;;;;5054091;28;20027;-71
2022/07/28 01:26:52;;;;;;;7.63;2.00;;;;;;;;;;5054638;28;20025;-71
2022/07/28 01:29:18;;;;;;;16.75;2.92;;;;;;;;;;5054883;28;20382;-71
2022/07/28 01:31:50;;;;;;;9.82;2.47;;;;;;;;;;5055137;28;20032;-71
2022/07/28 01:34:19;;;;;;;8.07;2.83;;;;;;;;;;5057848;28;20409;-70
2022/07/28 01:36:48;;;;;;;9.25;2.80;;;;;;;;;;5054614;28;20025;-70
2022/07/28 01:39:14;;;;;;;9.05;2.40;;;;;;;;;;5054919;28;20025;-70
2022/07/28 01:41:42;;;;;;;9.82;3.05;;;;;;;;;;5054831;28;20033;-71
2022/07/28 01:44:09;;;;;;;9.63;2.80;;;;;;;;;;5057903;28;20093;-71
2022/07/28 01:46:37;;;;;;;13.60;2.88;;;;;;;;;;5059876;28;20033;-70
2022/07/28 01:49:03;;;;;;;10.63;2.60;;;;;;;;;;5063912;28;20028;-71
2022/07/28 01:51:29;;;;;;;11.07;3.45;;;;;;;;;;5063759;28;20028;-71
2022/07/28 01:53:57;;;;;;;10.52;3.60;;;;;;;;;;5068256;28;20025;-72
2022/07/28 01:56:24;;;;;;;10.20;2.45;;;;;;;;;;5066244;28;20049;-70
2022/07/28 01:58:51;;;;;;;9.40;2.67;;;;;;;;;;5066524;28;20025;-71
2022/07/28 02:01:18;;;;;;;8.52;2.42;;;;;;;;;;5069387;28;20052;-71
2022/07/28 02:03:45;;;;;;;7.45;2.35;;;;;;;;;;5055615;28;20057;-73
2022/07/28 02:06:12;;;;;;;11.38;2.38;;;;;;;;;;5052535;28;20033;-71
2022/07/28 02:08:39;;;;;;;5.40;2.40;;;;;;;;;;5053962;28;20073;-70
2022/07/28 02:13:49;;;;;;;;;;;;;;;;;;5054370;28;20059;-71
2022/07/28 02:16:17;;;;;;;9.73;2.33;;;;;;;;;;5053667;28;19947;-71
2022/07/28 02:18:43;;;;;;;9.23;2.25;;;;;;;;;;5053744;28;20108;-71
2022/07/28 02:21:09;;;;;;;11.10;2.22;;;;;;;;;;5053655;28;20029;-71
2022/07/28 02:23:37;;;;;;;10.20;2.28;;;;;;;;;;5053874;28;20032;-71
2022/07/28 02:26:06;;;;;;;8.90;1.98;;;;;;;;;;5053298;28;20033;-71
2022/07/28 02:28:33;;;;;;;8.68;2.38;;;;;;;;;;5053606;28;20055;-71
2022/07/28 02:31:05;;;;;;;7.80;2.30;;;;;;;;;;5055764;28;20032;-71
2022/07/28 02:33:33;;;;;;;11.73;2.60;;;;;;;;;;5053804;28;20032;-71
2022/07/28 02:36:04;;;;;;;11.23;2.40;;;;;;;;;;5053750;28;20025;-71
2022/07/28 02:38:32;;;;;;;10.52;2.20;;;;;;;;;;5052441;28;20079;-71
2022/07/28 02:41:00;;;;;;;8.20;2.30;;;;;;;;;;5053393;28;20036;-71
2022/07/28 02:43:27;;;;;;;8.32;2.30;;;;;;;;;;5054263;28;20029;-72
2022/07/28 02:45:54;;;;;;;8.68;1.80;;;;;;;;;;5055045;28;20071;-71
2022/07/28 02:48:23;;;;;;;10.70;1.98;;;;;;;;;;5055162;28;20071;-71
2022/07/28 02:50:49;;;;;;;10.02;2.20;;;;;;;;;;5055941;28;20164;-72
2022/07/28 02:53:16;;;;;;;10.85;2.30;;;;;;;;;;5056843;28;20025;-73
2022/07/28 02:55:43;;;;;;;10.05;2.50;;;;;;;;;;5053031;28;20078;-72
2022/07/28 02:58:09;;;;;;;6.05;2.28;;;;;;;;;;5053164;28;20024;-72
2022/07/28 03:00:36;;;;;;;8.45;2.70;;;;;;;;;;5053128;28;20500;-72
2022/07/28 03:03:03;;;;;;;14.77;2.78;;;;;;;;;;5053018;28;20067;-71
2022/07/28 03:05:30;;;;;;;10.90;2.38;;;;;;;;;;5053417;28;20108;-72
2022/07/28 03:07:58;;;;;;;7.57;2.17;;;;;;;;;;5052852;28;20100;-72
2022/07/28 03:10:25;;;;;;;10.23;2.35;;;;;;;;;;5053131;28;20020;-73
2022/07/28 03:12:52;;;;;;;5.80;2.13;;;;;;;;;;5052225;28;20029;-72
2022/07/28 03:15:18;;;;;;;7.25;2.30;;;;;;;;;;5052868;28;20029;-72
2022/07/28 03:17:44;;;;;;;7.90;2.33;;;;;;;;;;5053219;28;20028;-72
2022/07/28 03:20:10;;;;;;;6.93;2.67;;;;;;;;;;5053031;28;20460;-71
2022/07/28 03:22:37;;;;;;;8.90;2.60;;;;;;;;;;5052639;28;20528;-72
2022/07/28 03:25:06;;;;;;;5.78;2.30;;;;;;;;;;5051396;28;20139;-72
2022/07/28 03:27:34;;;;;;;11.95;2.40;;;;;;;;;;5057963;28;20029;-72
2022/07/28 03:30:03;;;;;;;8.25;2.15;;;;;;;;;;5052956;28;20100;-72
2022/07/28 03:32:30;;;;;;;8.85;2.22;;;;;;;;;;5052493;28;20036;-73
2022/07/28 03:34:57;;;;;;;10.57;2.50;;;;;;;;;;5052562;28;20064;-73
2022/07/28 03:37:49;;;;;;;10.20;2.55;;;;;;;;;;5052471;28;20086;-73
2022/07/28 03:40:16;;;;;;;12.85;3.60;;;;;;;;;;5048856;28;20048;-73
2022/07/28 03:42:43;;;;;;;10.65;3.08;;;;;;;;;;5052302;28;20060;-73
2022/07/28 03:45:09;;;;;;;11.02;2.95;;;;;;;;;;5052759;28;20028;-71
2022/07/28 03:47:35;;;;;;;8.30;2.63;;;;;;;;;;5052086;28;20025;-72
2022/07/28 03:50:01;;;;;;;6.72;2.30;;;;;;;;;;5052555;28;20381;-72
2022/07/28 03:52:27;;;;;;;9.70;2.28;;;;;;;;;;5058922;28;20021;-71
2022/07/28 03:54:53;;;;;;;9.43;2.03;;;;;;;;;;5053238;28;20106;-72
2022/07/28 03:57:19;;;;;;;6.07;2.35;;;;;;;;;;5052078;28;20060;-72
2022/07/28 03:59:45;;;;;;;8.05;2.70;;;;;;;;;;5051969;28;20040;-71
2022/07/28 04:02:11;;;;;;;11.05;2.60;;;;;;;;;;5051880;28;20029;-73
2022/07/28 04:04:37;;;;;;;9.55;2.60;;;;;;;;;;5051915;28;20051;-73
2022/07/28 04:07:03;;;;;;;8.60;2.80;;;;;;;;;;5051783;28;20481;-73
2022/07/28 04:09:29;;;;;;;9.73;2.70;;;;;;;;;;5051986;28;20388;-71
2022/07/28 04:11:55;;;;;;;8.32;2.25;;;;;;;;;;5052098;28;20021;-71
2022/07/28 04:14:21;;;;;;;8.20;2.42;;;;;;;;;;5052008;28;20112;-73
2022/07/28 04:16:47;;;;;;;11.35;2.80;;;;;;;;;;5052235;28;20040;-73
2022/07/28 04:19:13;;;;;;;8.98;2.80;;;;;;;;;;5051730;28;20025;-74
2022/07/28 04:21:39;;;;;;;10.68;2.67;;;;;;;;;;5051744;28;20052;-74
2022/07/28 04:24:06;;;;;;;10.95;2.40;;;;;;;;;;5051457;28;20029;-73
2022/07/28 04:26:32;;;;;;;10.88;2.63;;;;;;;;;;5053797;28;20043;-72
2022/07/28 04:28:58;;;;;;;13.13;2.75;;;;;;;;;;5051583;28;20044;-73
2022/07/28 04:31:23;;;;;;;9.40;2.58;;;;;;;;;;5051657;28;20100;-77
2022/07/28 04:33:49;;;;;;;8.77;2.38;;;;;;;;;;5051520;28;20036;-72
2022/07/28 04:36:16;;;;;;;10.75;2.70;;;;;;;;;;5051660;28;20571;-72
2022/07/28 04:38:42;;;;;;;8.27;2.47;;;;;;;;;;5051587;28;20055;-72
2022/07/28 04:41:08;;;;;;;8.27;2.40;;;;;;;;;;5051909;28;20083;-72
2022/07/28 04:43:34;;;;;;;6.95;2.25;;;;;;;;;;5051456;28;20029;-72
2022/07/28 04:46:00;;;;;;;7.97;2.25;;;;;;;;;;5051484;28;20022;-71
2022/07/28 04:48:26;;;;;;;11.07;2.75;;;;;;;;;;5052159;28;20112;-72
2022/07/28 04:50:52;;;;;;;5.97;2.00;;;;;;;;;;5052123;28;20017;-72
2022/07/28 04:53:18;;;;;;;8.48;2.92;;;;;;;;;;5051973;28;20029;-74
2022/07/28 04:55:45;;;;;;;15.55;3.47;;;;;;;;;;5052267;28;20108;-74
2022/07/28 04:58:11;;;;;;;7.13;2.28;;;;;;;;;;5053124;28;20360;-74
2022/07/28 05:00:37;;;;;;;10.30;2.65;;;;;;;;;;5054315;28;20116;-73
2022/07/28 05:03:04;;;;;;;11.70;3.08;;;;;;;;;;5056066;28;20087;-73
2022/07/28 05:05:30;;;;;;;14.80;3.00;;;;;;;;;;5059554;28;20044;-72
2022/07/28 05:07:55;;;;;;;9.60;2.70;;;;;;;;;;5053931;28;20021;-73
2022/07/28 05:10:21;;;;;;;9.65;2.83;;;;;;;;;;5054094;28;20477;-73
2022/07/28 05:12:48;;;;;;;8.32;2.70;;;;;;;;;;5056710;28;20100;-73
2022/07/28 05:15:14;;;;;;;6.85;2.85;;;;;;;;;;5055006;28;20025;-73
2022/07/28 05:17:40;;;;;;;11.90;3.10;;;;;;;;;;5053631;28;20051;-72
2022/07/28 05:20:07;;;;;;;7.43;2.30;;;;;;;;;;5063390;28;20029;-72
2022/07/28 05:22:41;;;;;;;10.30;2.10;;;;;;;;;;5053201;28;20021;-72
2022/07/28 05:25:12;;;;;;;14.88;5.20;;;;;;;;;;5051684;28;20056;-73
2022/07/28 05:27:38;;;;;;;11.02;3.33;;;;;;;;;;5051618;28;20025;-73
2022/07/28 05:30:04;;;;;;;11.23;2.70;;;;;;;;;;5051503;28;20086;-72
2022/07/28 05:32:30;;;;;;;9.30;2.45;;;;;;;;;;5051612;28;20481;-71
2022/07/28 05:34:58;;;;;;;6.90;2.38;;;;;;;;;;5091952;22;20123;-77
2022/07/28 05:37:24;;;;;;;10.32;2.53;;;;;;;;;;5077023;28;20028;-77
2022/07/28 05:39:50;;;;;;;6.85;2.08;;;;;;;;;;5076398;28;20033;-77
2022/07/28 05:42:16;;;;;;;5.80;2.22;;;;;;;;;;5076115;28;20031;-77
2022/07/28 05:44:42;;;;;;;10.23;2.65;;;;;;;;;;5075470;28;20025;-79
2022/07/28 05:47:08;;;;;;;10.00;2.53;;;;;;;;;;5075601;28;20040;-75
2022/07/28 05:49:34;;;;;;;11.13;2.45;;;;;;;;;;5076783;28;20028;-76
2022/07/28 05:52:00;;;;;;;8.50;2.30;;;;;;;;;;5075630;28;20051;-77
2022/07/28 05:54:26;;;;;;;7.70;2.00;;;;;;;;;;5076902;28;20070;-77
2022/07/28 05:56:52;;;;;;;10.98;2.72;;;;;;;;;;5076192;28;20515;-78
2022/07/28 05:59:17;;;;;;;8.27;2.00;;;;;;;;;;5083887;28;20024;-75
2022/07/28 06:01:44;;;;;;;9.27;2.40;;;;;;;;;;5087178;28;20039;-75
2022/07/28 06:04:10;;;;;;;4.65;2.30;;;;;;;;;;5083505;28;20407;-75
2022/07/28 06:06:36;;;;;;;9.15;1.95;;;;;;;;;;5087661;28;20092;-76
2022/07/28 06:09:02;;;;;;;13.18;2.30;;;;;;;;;;5099493;28;20020;-77
2022/07/28 06:11:28;;;;;;;8.60;2.00;;;;;;;;;;5095006;28;20028;-79
2022/07/28 06:13:54;;;;;;;12.88;2.03;;;;;;;;;;5081538;28;20366;-79
2022/07/28 06:16:21;;;;;;;7.25;2.35;;;;;;;;;;5078728;28;20103;-76
2022/07/28 06:18:47;;;;;;;9.52;3.42;;;;;;;;;;5076699;28;20108;-77
2022/07/28 06:21:13;;;;;;;11.70;2.30;;;;;;;;;;5075545;28;20024;-75
2022/07/28 06:23:39;;;;;;;9.60;2.22;;;;;;;;;;5075031;28;20028;-79
2022/07/28 06:26:05;;;;;;;9.40;2.42;;;;;;;;;;5078007;28;20033;-77
2022/07/28 06:28:31;;;;;;;9.20;2.35;;;;;;;;;;5077784;28;20021;-80
2022/07/28 06:30:58;;;;;;;7.90;2.60;;;;;;;;;;5077185;28;20071;-79
2022/07/28 06:33:23;;;;;;;11.48;2.65;;;;;;;;;;5076185;28;20116;-77
2022/07/28 06:35:49;;;;;;;6.28;2.13;;;;;;;;;;5080744;28;20060;-80
2022/07/28 06:38:15;;;;;;;11.40;1.88;;;;;;;;;;5082806;28;20033;-79
2022/07/28 06:40:42;;;;;;;8.10;1.70;;;;;;;;;;5081553;28;20028;-78
2022/07/28 06:43:08;;;;;;;5.88;1.65;;;;;;;;;;5086697;28;20028;-80
2022/07/28 06:45:34;;;;;;;7.32;1.40;;;;;;;;;;5080911;28;20489;-80
2022/07/28 06:48:00;;;;;;;11.15;1.85;;;;;;;;;;5077188;28;20024;-79
2022/07/28 06:50:26;;;;;;;16.13;5.50;;;;;;;;;;5078213;28;20028;-79
2022/07/28 06:52:52;;;;;;;9.68;2.30;;;;;;;;;;5078911;28;20536;-80
2022/07/28 06:55:18;;;;;;;11.50;1.95;;;;;;;;;;5078555;28;20025;-81
2022/07/28 06:57:44;;;;;;;8.10;1.70;;;;;;;;;;5080683;28;20021;-80
2022/07/28 07:00:12;;;;;;;11.27;1.90;;;;;;;;;;5082156;28;20076;-78
2022/07/28 07:02:38;;;;;;;10.70;1.75;;;;;;;;;;5082096;28;20059;-78
2022/07/28 07:05:05;;;;;;;12.02;1.80;;;;;;;;;;5080588;28;20021;-79
2022/07/28 07:07:31;;;;;;;9.13;1.77;;;;;;;;;;5076252;28;20043;-75
2022/07/28 07:09:57;;;;;;;8.05;1.75;;;;;;;;;;5074456;28;20452;-75
2022/07/28 07:12:23;;;;;;;5.45;1.90;;;;;;;;;;5074709;28;20024;-76
2022/07/28 07:14:49;;;;;;;18.70;9.73;;;;;;;;;;5075446;28;20462;-77
2022/07/28 07:17:15;;;;;;;10.82;4.38;;;;;;;;;;5077009;28;20096;-78
2022/07/28 07:19:41;;;;;;;10.43;3.88;;;;;;;;;;5077272;28;20492;-81
2022/07/28 07:22:07;;;;;;;4.88;1.58;;;;;;;;;;5080766;28;20113;-78
2022/07/28 07:24:34;;;;;;;5.22;1.35;;;;;;;;;;5079499;28;20469;-77
2022/07/28 07:27:00;;;;;;;6.60;2.20;;;;;;;;;;5077826;28;20029;-79
2022/07/28 07:29:26;;;;;;;9.55;1.88;;;;;;;;;;5079254;28;20020;-82
2022/07/28 07:31:51;;;;;;;8.70;2.22;;;;;;;;;;5092056;28;20037;-79
2022/07/28 07:34:17;;;;;;;7.15;1.77;;;;;;;;;;5083071;28;20040;-83
2022/07/28 07:36:43;;;;;;;7.82;1.60;;;;;;;;;;5080559;28;20028;-75
2022/07/28 07:39:09;;;;;;;5.95;1.50;;;;;;;;;;5076162;28;20052;-77
2022/07/28 07:41:35;;;;;;;8.70;3.22;;;;;;;;;;5080557;28;20024;-78
2022/07/28 07:44:01;;;;;;;14.43;2.80;;;;;;;;;;5077521;28;20074;-77
2022/07/28 07:46:27;;;;;;;7.97;3.20;;;;;;;;;;5076644;28;20075;-76
2022/07/28 07:48:53;;;;;;;9.75;2.38;;;;;;;;;;5075708;28;20032;-76
2022/07/28 07:51:19;;;;;;;8.82;1.98;;;;;;;;;;5074575;28;20021;-76
2022/07/28 07:53:45;;;;;;;6.03;2.28;;;;;;;;;;5074852;28;20066;-76
2022/07/28 07:56:13;;;;;;;7.18;1.98;;;;;;;;;;5073383;28;20028;-80
2022/07/28 07:58:39;;;;;;;22.02;7.65;;;;;;;;;;5074390;28;20032;-76
2022/07/28 08:01:05;;;;;;;18.00;5.65;;;;;;;;;;5075606;28;20024;-80
2022/07/28 08:03:30;;;;;;;16.77;6.93;;;;;;;;;;5076034;28;20032;-78
2022/07/28 08:05:56;;;;;;;13.45;3.70;;;;;;;;;;5087068;28;20060;-79
2022/07/28 08:08:23;;;;;;;12.77;3.55;;;;;;;;;;5094632;28;20044;-77
2022/07/28 08:10:49;;;;;;;8.38;1.88;;;;;;;;;;5074622;28;20496;-78
2022/07/28 08:13:19;;;;;;;8.25;1.73;;;;;;;;;;5074881;28;20021;-78
2022/07/28 08:15:45;;;;;;;11.18;2.53;;;;;;;;;;5075109;28;20718;-77
2022/07/28 08:18:11;;;;;;;16.05;1.77;;;;;;;;;;5074309;28;20028;-77
2022/07/28 08:20:37;;;;;;;9.63;1.67;;;;;;;;;;5073754;28;20035;-77
2022/07/28 08:23:03;;;;;;;12.05;2.50;;;;;;;;;;5074323;28;20025;-76
2022/07/28 08:25:29;;;;;;;8.75;1.60;;;;;;;;;;5073945;28;20024;-77
2022/07/28 08:27:55;;;;;;;9.98;3.38;;;;;;;;;;5081488;28;20389;-78
2022/07/28 08:30:21;;;;;;;10.02;2.20;;;;;;;;;;5075574;28;20036;-78
2022/07/28 08:32:47;;;;;;;6.35;1.85;;;;;;;;;;5075568;28;20028;-76
2022/07/28 08:35:14;;;;;;;7.22;1.35;;;;;;;;;;5074545;28;20115;-76
2022/07/28 08:37:40;;;;;;;7.38;1.60;;;;;;;;;;5076459;28;20468;-77
2022/07/28 08:40:13;;;;;;;7.40;1.88;;;;;;;;;;5077646;28;20029;-78
2022/07/28 08:42:57;;;;;;;7.40;1.50;;;;;;;;;;5079715;28;20081;-77
2022/07/28 08:45:24;;;;;;;8.57;2.00;;;;;;;;;;5083761;28;20046;-76
2022/07/28 08:47:51;;;;;;;10.63;2.42;;;;;;;;;;5085359;28;20106;-77
2022/07/28 08:50:19;;;;;;;10.93;1.77;;;;;;;;;;5073064;28;20394;-77
2022/07/28 08:52:49;;;;;;;8.00;1.77;;;;;;;;;;5073126;28;20086;-76
2022/07/28 08:55:15;;;;;;;6.50;1.55;;;;;;;;;;5073419;28;20418;-76
2022/07/28 08:57:41;;;;;;;6.72;1.50;;;;;;;;;;5071839;28;20021;-77
2022/07/28 09:00:08;;;;;;;7.82;1.67;;;;;;;;;;5073373;28;20036;-76
2022/07/28 09:02:37;;;;;;;5.82;1.27;;;;;;;;;;5073355;28;20492;-78
2022/07/28 09:05:03;;;;;;;6.32;1.60;;;;;;;;;;5072901;28;20481;-76
2022/07/28 09:07:30;;;;;;;4.78;1.33;;;;;;;;;;5072029;28;20037;-75
2022/07/28 09:09:56;;;;;;;10.50;1.13;;;;;;;;;;5075489;28;20100;-77
2022/07/28 09:12:22;;;;;;;6.35;1.35;;;;;;;;;;5076917;28;20024;-75
2022/07/28 09:14:48;;;;;;;3.05;1.40;;;;;;;;;;5077104;28;20028;-76
2022/07/28 09:17:14;;;;;;;7.97;1.48;;;;;;;;;;5078128;28;20040;-77
2022/07/28 09:19:40;;;;;;;5.07;1.42;;;;;;;;;;5076213;28;20032;-77
2022/07/28 09:22:06;;;;;;;4.63;1.40;;;;;;;;;;5077139;28;20469;-77
2022/07/28 09:24:40;;;;;;;6.63;1.50;;;;;;;;;;5077020;28;20025;-77
2022/07/28 09:27:07;;;;;;;3.30;1.10;;;;;;;;;;5075901;28;20077;-76
2022/07/28 09:29:34;;;;;;;6.13;2.53;;;;;;;;;;5074909;28;20055;-76
2022/07/28 09:32:00;;;;;;;6.38;1.45;;;;;;;;;;5075751;28;20028;-77
2022/07/28 09:34:26;;;;;;;9.60;1.70;;;;;;;;;;5076262;28;20033;-77
2022/07/28 09:36:52;;;;;;;3.90;1.55;;;;;;;;;;5081595;28;20477;-75
2022/07/28 09:39:31;;;;;;;4.00;1.25;;;;;;;;;;5076037;28;20032;-77
2022/07/28 09:41:57;;;;;;;10.20;1.33;;;;;;;;;;5075793;28;20025;-75
2022/07/28 09:44:25;;;;;;;8.05;1.35;;;;;;;;;;5075626;28;20099;-74
2022/07/28 09:46:50;;;;;;;4.80;1.35;;;;;;;;;;5076104;28;20027;-77
2022/07/28 09:49:16;;;;;;;6.22;2.38;;;;;;;;;;5075965;28;20024;-76
2022/07/28 09:51:58;;;;;;;12.25;7.18;;;;;;;;;;5074131;28;20043;-75
2022/07/28 09:54:23;;;;;;;9.32;2.80;;;;;;;;;;5076027;28;20108;-75
2022/07/28 09:56:49;;;;;;;5.85;1.33;;;;;;;;;;5075899;28;20493;-78
2022/07/28 09:59:17;;;;;;;5.15;1.40;;;;;;;;;;5075715;28;20037;-75
2022/07/28 10:02:00;;;;;;;6.80;2.70;;;;;;;;;;5076616;28;20096;-77
2022/07/28 10:04:29;;;;;;;5.38;1.50;;;;;;;;;;5076729;28;20367;-76
2022/07/28 10:07:06;;;;;;;5.65;1.80;;;;;;;;;;5076321;28;20028;-77
2022/07/28 10:09:32;;;;;;;4.68;1.10;;;;;;;;;;5074934;28;20021;-79
2022/07/28 10:12:16;;;;;;;5.30;1.20;;;;;;;;;;5079735;28;20055;-76
2022/07/28 10:14:45;;;;;;;6.68;1.60;;;;;;;;;;5075704;28;20442;-76
2022/07/28 10:17:11;;;;;;;12.00;2.92;;;;;;;;;;5076062;28;20047;-78
2022/07/28 10:19:39;;;;;;;7.03;2.00;;;;;;;;;;5074408;28;20032;-77
2022/07/28 10:22:05;;;;;;;8.02;1.40;;;;;;;;;;5075436;28;20020;-77
2022/07/28 10:24:34;;;;;;;4.07;1.05;;;;;;;;;;5075362;28;20029;-78
2022/07/28 10:27:01;;;;;;;6.32;1.38;;;;;;;;;;5075065;28;20029;-77
2022/07/28 10:29:30;;;;;;;7.68;2.83;;;;;;;;;;5075468;28;20104;-77
2022/07/28 10:32:04;;;;;;;9.63;3.53;;;;;;;;;;5075049;28;20385;-77
2022/07/28 10:34:35;;;;;;;5.45;1.25;;;;;;;;;;5075925;28;20131;-77
2022/07/28 10:37:03;;;;;;;4.82;1.35;;;;;;;;;;5074814;28;20032;-78
2022/07/28 10:39:32;;;;;;;8.07;2.83;;;;;;;;;;5074299;28;20090;-77
2022/07/28 10:41:58;;;;;;;8.93;4.28;;;;;;;;;;5075697;28;20524;-77
2022/07/28 10:44:24;;;;;;;2.72;1.17;;;;;;;;;;5076089;28;20032;-77
2022/07/28 10:46:50;;;;;;;6.88;1.60;;;;;;;;;;5074840;28;20107;-77
2022/07/28 10:49:16;;;;;;;15.05;5.50;;;;;;;;;;5076121;28;20024;-76
2022/07/28 10:51:44;;;;;;;6.88;1.20;;;;;;;;;;5076699;28;20032;-77
2022/07/28 10:54:23;;;;;;;6.10;1.30;;;;;;;;;;5075692;28;20105;-78
2022/07/28 10:56:49;;;;;;;4.57;1.48;;;;;;;;;;5077784;28;20047;-77
2022/07/28 10:59:22;;;;;;;2.95;1.10;;;;;;;;;;5076841;28;20021;-78
2022/07/28 11:01:48;;;;;;;6.55;1.10;;;;;;;;;;5075738;28;20032;-77
2022/07/28 11:04:33;;;;;;;4.72;1.23;;;;;;;;;;5076498;28;20557;-77
2022/07/28 11:07:21;;;;;;;8.60;1.75;;;;;;;;;;5076167;28;20081;-77
2022/07/28 11:09:47;;;;;;;6.13;1.58;;;;;;;;;;5080839;28;20043;-76
2022/07/28 11:12:16;;;;;;;4.95;1.60;;;;;;;;;;5078552;28;20020;-77
2022/07/28 11:14:43;;;;;;;5.95;1.40;;;;;;;;;;5076788;28;20028;-78
2022/07/28 11:17:12;;;;;;;3.63;1.40;;;;;;;;;;5077494;28;20478;-77
2022/07/28 11:19:44;;;;;;;8.45;2.03;;;;;;;;;;5078753;28;20024;-79
2022/07/28 11:24:59;;;;;;;6.03;2.08;;;;;;;;;;5075348;28;20033;-76
2022/07/28 11:27:40;;;;;;;9.70;1.40;;;;;;;;;;5083123;28;20021;-77
2022/07/28 11:30:10;;;;;;;5.40;2.05;;;;;;;;;;5077273;28;20077;-77
2022/07/28 11:32:54;;;;;;;11.95;8.43;;;;;;;;;;5076717;28;20389;-77
2022/07/28 11:35:21;;;;;;;4.38;1.48;;;;;;;;;;5113459;22;20048;-76
2022/07/28 11:38:02;;;;;;;12.65;4.22;;;;;;;;;;5094668;28;20465;-77
2022/07/28 11:40:34;;;;;;;7.32;2.13;;;;;;;;;;5094301;28;20043;-76
2022/07/28 11:43:19;;;;;;;9.50;2.88;;;;;;;;;;5094580;28;20503;-73
2022/07/28 11:45:45;;;;;;;;;;;;;;;;;;5075526;28;20028;-74
2022/07/28 11:48:21;;;;;;;5.80;2.40;;;;;;;;;;5075195;28;19939;-75
2022/07/28 11:51:02;;;;;;;10.55;6.85;;;;;;;;;;5075605;28;20028;-74
2022/07/28 11:53:38;;;;;;;7.20;2.70;;;;;;;;;;5081048;28;20037;-75
2022/07/28 11:56:06;;;;;;;5.40;1.95;;;;;;;;;;5095862;28;20046;-73
2022/07/28 11:58:32;;;;;;;6.38;1.70;;;;;;;;;;5093505;28;20056;-75
2022/07/28 12:01:14;;;;;;;4.20;1.83;;;;;;;;;;5084959;28;20138;-76
2022/07/28 12:03:41;;;;;;;5.25;1.65;;;;;;;;;;5084980;28;20099;-74
2022/07/28 12:06:10;;;;;;;6.90;3.15;;;;;;;;;;5081514;28;20035;-76
2022/07/28 12:08:49;;;;;;;16.58;7.72;;;;;;;;;;5083520;28;20032;-74
2022/07/28 12:11:15;;;;;;;13.05;5.30;;;;;;;;;;5080900;28;20051;-76
2022/07/28 12:13:41;;;;;;;12.13;1.70;;;;;;;;;;5082399;28;20024;-76
2022/07/28 12:16:07;;;;;;;3.67;1.05;;;;;;;;;;5083922;28;20043;-77
2022/07/28 12:18:33;;;;;;;5.90;1.30;;;;;;;;;;5078525;28;20107;-76
2022/07/28 12:20:59;;;;;;;5.57;1.50;;;;;;;;;;5075726;28;20032;-75
2022/07/28 12:23:29;;;;;;;3.72;1.45;;;;;;;;;;5073317;28;20093;-76
2022/07/28 12:25:55;;;;;;;6.53;1.58;;;;;;;;;;5073314;28;20472;-76
2022/07/28 12:28:22;;;;;;;5.35;2.08;;;;;;;;;;5056358;28;20028;-75
2022/07/28 12:30:51;;;;;;;4.03;1.23;;;;;;;;;;5076100;28;20056;-77
2022/07/28 12:33:19;;;;;;;5.50;1.60;;;;;;;;;;5074138;28;20158;-76
2022/07/28 12:35:45;;;;;;;4.97;1.38;;;;;;;;;;5055240;28;20035;-77
2022/07/28 12:38:11;;;;;;;6.05;1.38;;;;;;;;;;5074377;28;20040;-77
2022/07/28 12:40:38;;;;;;;5.63;1.70;;;;;;;;;;5074563;28;20021;-76
2022/07/28 12:43:05;;;;;;;4.82;1.95;;;;;;;;;;5075238;28;20426;-76
2022/07/28 12:45:32;;;;;;;12.45;3.50;;;;;;;;;;5076136;28;20422;-75
2022/07/28 12:48:05;;;;;;;10.50;2.90;;;;;;;;;;5081068;28;20016;-78
2022/07/28 12:50:36;;;;;;;7.70;2.53;;;;;;;;;;5067990;28;20377;-78
2022/07/28 12:53:09;;;;;;;7.72;1.50;;;;;;;;;;5078938;28;20373;-75
2022/07/28 12:55:35;;;;;;;8.13;3.63;;;;;;;;;;5078534;28;20082;-76
2022/07/28 12:58:01;;;;;;;5.05;2.03;;;;;;;;;;5078105;28;20115;-77
2022/07/28 13:00:30;;;;;;;6.38;1.35;;;;;;;;;;5077104;28;20029;-75
2022/07/28 13:02:57;;;;;;;6.22;1.48;;;;;;;;;;5079465;28;20097;-79
2022/07/28 13:05:29;;;;;;;9.10;1.90;;;;;;;;;;5081499;28;20031;-77
2022/07/28 13:07:59;;;;;;;9.13;1.30;;;;;;;;;;5080223;28;20500;-76
2022/07/28 13:10:26;;;;;;;6.22;1.83;;;;;;;;;;5079652;28;20020;-76
2022/07/28 13:13:05;;;;;;;8.07;1.58;;;;;;;;;;5078616;28;20017;-77
2022/07/28 13:15:31;;;;;;;4.53;1.58;;;;;;;;;;5077501;28;20024;-78
2022/07/28 13:17:57;;;;;;;35.95;23.77;;;;;;;;;;5078476;28;20493;-77
2022/07/28 13:20:23;;;;;;;7.60;3.67;;;;;;;;;;5077907;28;20039;-77
2022/07/28 13:22:51;;;;;;;11.45;1.58;;;;;;;;;;5082096;28;20020;-78
2022/07/28 13:25:17;;;;;;;6.35;2.28;;;;;;;;;;5083645;28;20028;-78
2022/07/28 13:27:43;;;;;;;7.30;3.15;;;;;;;;;;5081733;28;20491;-79
2022/07/28 13:30:09;;;;;;;11.20;3.08;;;;;;;;;;5061792;28;20443;-76
2022/07/28 13:32:35;;;;;;;5.03;1.90;;;;;;;;;;5083174;28;20088;-81
2022/07/28 13:35:02;;;;;;;4.57;1.52;;;;;;;;;;5078695;28;20021;-77
2022/07/28 13:37:28;;;;;;;8.55;3.53;;;;;;;;;;5077779;28;20034;-78
2022/07/28 13:39:54;;;;;;;8.90;1.83;;;;;;;;;;5093334;28;20063;-77
2022/07/28 13:42:20;;;;;;;4.30;1.77;;;;;;;;;;5071066;28;20028;-78
2022/07/28 13:44:46;;;;;;;6.57;1.73;;;;;;;;;;5062838;28;20020;-76
2022/07/28 13:47:12;;;;;;;6.28;2.53;;;;;;;;;;5079831;28;20111;-76
2022/07/28 13:49:38;;;;;;;10.27;5.05;;;;;;;;;;5083559;28;20364;-80
2022/07/28 13:52:05;;;;;;;5.97;3.35;;;;;;;;;;5063248;28;20024;-81
2022/07/28 13:54:32;;;;;;;6.45;1.80;;;;;;;;;;5080533;28;20020;-78
2022/07/28 13:56:58;;;;;;;8.27;2.72;;;;;;;;;;5062340;28;20025;-79
2022/07/28 13:59:24;;;;;;;7.43;2.20;;;;;;;;;;5085627;28;20023;-77
2022/07/28 14:01:50;;;;;;;7.75;2.30;;;;;;;;;;5075271;28;20412;-77
2022/07/28 14:04:16;;;;;;;3.70;1.50;;;;;;;;;;5089353;28;20090;-78
2022/07/28 14:06:43;;;;;;;5.20;1.70;;;;;;;;;;5066086;28;20527;-77
2022/07/28 14:09:10;;;;;;;3.78;1.17;;;;;;;;;;5065581;28;20021;-78
2022/07/28 14:11:36;;;;;;;7.85;1.05;;;;;;;;;;5065355;28;20144;-77
2022/07/28 14:14:02;;;;;;;8.02;1.58;;;;;;;;;;5084507;28;20032;-77
2022/07/28 14:16:30;;;;;;;9.30;4.10;;;;;;;;;;5085368;28;20060;-76
2022/07/28 14:18:57;;;;;;;5.90;2.22;;;;;;;;;;5064455;28;20060;-76
2022/07/28 14:21:23;;;;;;;4.13;1.52;;;;;;;;;;5089401;28;20036;-77
2022/07/28 14:23:49;;;;;;;5.40;1.20;;;;;;;;;;5087362;28;20059;-77
2022/07/28 14:26:15;;;;;;;5.20;1.98;;;;;;;;;;5095793;28;20024;-76
2022/07/28 14:28:41;;;;;;;5.82;1.95;;;;;;;;;;5098518;28;20035;-75
2022/07/28 14:31:07;;;;;;;7.03;2.17;;;;;;;;;;5098199;28;20033;-75
2022/07/28 14:33:33;;;;;;;10.27;1.30;;;;;;;;;;5073308;28;20028;-77
2022/07/28 14:35:59;;;;;;;6.80;1.63;;;;;;;;;;5096822;28;20037;-75
2022/07/28 14:38:25;;;;;;;8.80;1.60;;;;;;;;;;5088307;28;20046;-76
2022/07/28 14:40:52;;;;;;;7.45;2.83;;;;;;;;;;5085227;28;20055;-79
2022/07/28 14:43:18;;;;;;;9.05;3.30;;;;;;;;;;5065332;28;20040;-81
2022/07/28 14:45:45;;;;;;;6.53;2.55;;;;;;;;;;5060328;28;20393;-78
2022/07/28 14:48:11;;;;;;;9.38;1.80;;;;;;;;;;5077585;28;20031;-77